createdAt,value
2024-04-12T00:02:08.832Z,12.10
2024-04-12T00:04:36.770Z,12.00
2024-04-12T00:07:06.665Z,11.90
2024-04-12T00:09:33.498Z,11.80
2024-04-12T00:12:02.235Z,11.70
2024-04-12T00:14:29.534Z,11.60
2024-04-12T00:16:57.658Z,11.60
2024-04-12T00:19:25.125Z,11.40
2024-04-12T00:21:54.344Z,11.30
2024-04-12T00:24:26.079Z,11.20
2024-04-12T00:26:57.223Z,11.20
2024-04-12T00:29:28.111Z,11.20
2024-04-12T00:32:06.773Z,11.30
2024-04-12T00:34:40.931Z,11.20
2024-04-12T00:37:08.569Z,11.20
2024-04-12T00:39:37.201Z,11.10
2024-04-12T00:42:08.546Z,11.00
2024-04-12T00:44:37.868Z,10.90
2024-04-12T00:47:08.663Z,10.80
2024-04-12T00:49:37.959Z,10.70
2024-04-12T00:52:08.164Z,10.70
2024-04-12T00:54:35.670Z,10.60
2024-04-12T00:57:04.034Z,10.30
2024-04-12T00:59:32.632Z,10.20
2024-04-12T01:02:00.632Z,10.20
2024-04-12T01:04:29.056Z,10.30
2024-04-12T01:06:55.862Z,10.40
2024-04-12T01:09:22.856Z,10.20
2024-04-12T01:11:50.848Z,10.20
2024-04-12T01:14:17.987Z,10.10
2024-04-12T01:16:44.927Z,10.00
2024-04-12T01:19:13.620Z,10.00
2024-04-12T01:21:45.532Z,10.10
2024-04-12T01:24:12.368Z,10.10
2024-04-12T01:26:40.318Z,10.10
2024-04-12T01:29:07.168Z,10.20
2024-04-12T01:31:37.377Z,10.20
2024-04-12T01:34:05.264Z,10.10
2024-04-12T01:36:33.560Z,10.00
2024-04-12T01:39:00.420Z,9.90
2024-04-12T01:41:33.485Z,9.80
2024-04-12T01:44:10.372Z,9.80
2024-04-12T01:46:39.120Z,9.70
2024-04-12T01:49:12.354Z,9.70
2024-04-12T01:51:39.219Z,9.70
2024-04-12T01:54:16.042Z,9.80
2024-04-12T01:56:48.550Z,9.80
2024-04-12T01:59:23.506Z,9.80
2024-04-12T02:01:51.233Z,9.70
2024-04-12T02:04:19.748Z,9.70
2024-04-12T02:06:49.208Z,9.70
2024-04-12T02:09:17.824Z,9.90
2024-04-12T02:11:48.242Z,9.80
2024-04-12T02:14:15.172Z,9.80
2024-04-12T02:16:43.033Z,9.70
2024-04-12T02:19:14.404Z,9.70
2024-04-12T02:21:41.508Z,9.60
2024-04-12T02:24:11.662Z,9.50
2024-04-12T02:26:41.960Z,9.40
2024-04-12T02:29:10.024Z,9.40
2024-04-12T02:31:36.989Z,9.30
2024-04-12T02:34:03.902Z,9.30
2024-04-12T02:36:33.566Z,9.30
2024-04-12T02:39:05.987Z,9.30
2024-04-12T02:41:38.916Z,9.30
2024-04-12T02:44:07.743Z,9.20
2024-04-12T02:46:34.619Z,9.10
2024-04-12T02:49:06.126Z,9.10
2024-04-12T02:51:32.908Z,8.90
2024-04-12T02:54:00.202Z,8.90
2024-04-12T02:56:27.274Z,8.90
2024-04-12T02:58:55.010Z,9.00
2024-04-12T03:01:24.419Z,8.90
2024-04-12T03:03:52.980Z,8.90
2024-04-12T03:06:24.555Z,8.90
2024-04-12T03:08:53.320Z,8.90
2024-04-12T03:11:23.028Z,8.90
2024-04-12T03:14:04.968Z,9.00
2024-04-12T03:16:32.662Z,9.00
2024-04-12T03:19:00.083Z,8.90
2024-04-12T03:21:28.066Z,9.00
2024-04-12T03:23:56.604Z,9.00
2024-04-12T03:26:24.520Z,9.00
2024-04-12T03:29:04.275Z,8.90
2024-04-12T03:31:34.505Z,8.80
2024-04-12T03:34:01.985Z,8.70
2024-04-12T03:36:39.407Z,8.70
2024-04-12T03:39:22.126Z,8.60
2024-04-12T03:42:14.590Z,8.60
2024-04-12T03:44:44.160Z,8.70
2024-04-12T03:47:13.095Z,8.60
2024-04-12T03:49:42.654Z,8.50
2024-04-12T03:52:16.445Z,8.50
2024-04-12T03:54:46.968Z,8.60
2024-04-12T03:57:15.080Z,8.60
2024-04-12T03:59:45.559Z,8.50
2024-04-12T04:02:15.426Z,8.40
2024-04-12T04:04:47.327Z,8.30
2024-04-12T04:07:19.515Z,8.30
2024-04-12T04:09:47.556Z,8.30
2024-04-12T04:12:17.123Z,8.30
2024-04-12T04:14:52.758Z,8.30
2024-04-12T04:17:30.772Z,8.30
2024-04-12T04:19:58.717Z,8.10
2024-04-12T04:22:37.427Z,7.90
2024-04-12T04:25:09.520Z,8.00
2024-04-12T04:27:37.029Z,8.00
2024-04-12T04:30:04.150Z,7.90
2024-04-12T04:32:31.157Z,7.90
2024-04-12T04:35:07.739Z,7.90
2024-04-12T04:37:39.242Z,7.90
2024-04-12T04:40:12.910Z,7.80
2024-04-12T04:42:40.906Z,7.90
2024-04-12T04:45:09.003Z,8.00
2024-04-12T04:47:40.636Z,8.00
2024-04-12T04:50:11.510Z,8.00
2024-04-12T04:52:39.174Z,8.00
2024-04-12T04:55:08.399Z,8.00
2024-04-12T04:57:36.959Z,8.10
2024-04-12T05:00:08.274Z,8.00
2024-04-12T05:02:36.568Z,8.00
2024-04-12T05:05:05.736Z,7.90
2024-04-12T05:07:36.071Z,7.90
2024-04-12T05:10:10.414Z,8.00
2024-04-12T05:12:38.044Z,7.80
2024-04-12T05:15:25.467Z,7.70
2024-04-12T05:17:56.123Z,7.50
2024-04-12T05:20:40.143Z,7.60
2024-04-12T05:23:09.638Z,7.40
2024-04-12T05:25:36.904Z,7.60
2024-04-12T05:28:08.069Z,7.60
2024-04-12T05:30:38.520Z,7.80
2024-04-12T05:33:05.891Z,7.90
2024-04-12T05:35:35.831Z,8.00
2024-04-12T05:38:08.487Z,8.00
2024-04-12T05:40:53.094Z,8.00
2024-04-12T05:43:22.668Z,8.10
2024-04-12T05:45:51.374Z,8.20
2024-04-12T05:48:19.340Z,8.20
2024-04-12T05:50:49.945Z,8.20
2024-04-12T05:53:25.404Z,8.20
2024-04-12T05:56:15.233Z,8.30
2024-04-12T05:58:42.496Z,8.30
2024-04-12T06:01:10.055Z,8.30
2024-04-12T06:03:53.660Z,8.30
2024-04-12T06:06:23.261Z,8.50
2024-04-12T06:08:50.545Z,8.30
2024-04-12T06:11:18.444Z,8.50
2024-04-12T06:13:49.122Z,8.80
2024-04-12T06:16:18.814Z,8.90
2024-04-12T06:18:52.088Z,9.10
2024-04-12T06:21:19.760Z,9.20
2024-04-12T06:23:50.373Z,9.40
2024-04-12T06:26:17.241Z,9.60
2024-04-12T06:28:45.711Z,9.70
2024-04-12T06:31:21.138Z,9.60
2024-04-12T06:33:50.717Z,9.90
2024-04-12T06:36:18.025Z,10.10
2024-04-12T06:38:45.322Z,10.30
2024-04-12T06:41:12.320Z,10.50
2024-04-12T06:43:39.506Z,10.80
2024-04-12T06:46:15.877Z,10.90
2024-04-12T06:48:45.824Z,11.10
2024-04-12T06:51:13.351Z,11.20
2024-04-12T06:53:47.483Z,11.20
2024-04-12T06:56:19.025Z,11.50
2024-04-12T06:58:50.252Z,11.60
2024-04-12T07:01:23.486Z,11.60
2024-04-12T07:03:53.834Z,11.90
2024-04-12T07:06:21.274Z,12.20
2024-04-12T07:08:51.981Z,12.40
2024-04-12T07:11:25.399Z,12.60
2024-04-12T07:13:52.500Z,12.70
2024-04-12T07:16:22.979Z,12.80
2024-04-12T07:18:51.378Z,13.00
2024-04-12T07:21:23.823Z,13.00
2024-04-12T07:23:51.077Z,12.90
2024-04-12T07:26:28.787Z,12.90
2024-04-12T07:29:01.658Z,12.90
2024-04-12T07:31:38.285Z,12.60
2024-04-12T07:34:09.992Z,12.90
2024-04-12T07:36:38.667Z,12.80
2024-04-12T07:39:09.441Z,12.90
2024-04-12T07:41:42.479Z,13.40
2024-04-12T07:44:13.464Z,13.20
2024-04-12T07:46:50.153Z,13.30
2024-04-12T07:49:17.287Z,13.60
2024-04-12T07:51:46.731Z,13.90
2024-04-12T07:54:14.945Z,14.00
2024-04-12T07:56:46.705Z,14.30
2024-04-12T07:59:29.119Z,14.50
2024-04-12T08:01:58.815Z,14.40
2024-04-12T08:04:27.227Z,14.60
2024-04-12T08:06:58.798Z,14.60
2024-04-12T08:09:36.142Z,14.40
2024-04-12T08:12:14.600Z,14.80
2024-04-12T08:14:53.123Z,14.90
2024-04-12T08:17:24.935Z,15.00
2024-04-12T08:19:56.719Z,15.40
2024-04-12T08:22:26.924Z,15.70
2024-04-12T08:24:55.107Z,15.70
2024-04-12T08:27:26.260Z,15.60
2024-04-12T08:29:54.249Z,15.90
2024-04-12T08:32:29.058Z,16.00
2024-04-12T08:35:00.163Z,15.90
2024-04-12T08:37:38.369Z,16.10
2024-04-12T08:40:12.413Z,16.00
2024-04-12T08:42:40.337Z,16.20
2024-04-12T08:45:15.680Z,16.40
2024-04-12T08:48:11.103Z,16.50
2024-04-12T08:50:40.882Z,16.70
2024-04-12T08:53:14.492Z,16.80
2024-04-12T08:55:46.297Z,16.70
2024-04-12T08:58:21.733Z,17.10
2024-04-12T09:00:54.108Z,17.30
2024-04-12T09:03:31.449Z,17.20
2024-04-12T09:05:59.063Z,17.60
2024-04-12T09:08:32.424Z,17.70
2024-04-12T09:11:04.958Z,18.00
2024-04-12T09:13:34.343Z,17.70
2024-04-12T09:16:04.724Z,18.00
2024-04-12T09:18:45.474Z,18.30
2024-04-12T09:21:30.591Z,18.40
2024-04-12T09:24:10.794Z,18.90
2024-04-12T09:26:56.570Z,19.30
2024-04-12T09:29:30.461Z,18.90
2024-04-12T09:32:20.026Z,19.00
2024-04-12T09:34:56.702Z,19.40
2024-04-12T09:37:31.362Z,19.60
2024-04-12T09:40:02.804Z,19.50
2024-04-12T09:42:48.999Z,19.60
2024-04-12T09:45:23.860Z,19.10
2024-04-12T09:48:12.145Z,19.40
2024-04-12T09:50:59.508Z,19.60
2024-04-12T09:53:45.466Z,19.60
2024-04-12T09:56:35.632Z,19.90
2024-04-12T09:59:25.780Z,19.50
2024-04-12T10:02:15.419Z,19.40
2024-04-12T10:05:04.083Z,19.90
2024-04-12T10:07:50.257Z,20.30
2024-04-12T10:10:37.764Z,20.10
2024-04-12T10:13:25.500Z,20.40
2024-04-12T10:16:21.126Z,20.70
2024-04-12T10:19:15.091Z,20.60
2024-04-12T10:22:00.592Z,20.60
2024-04-12T10:24:47.036Z,20.70
2024-04-12T10:27:32.791Z,20.60
2024-04-12T10:30:18.274Z,21.00
2024-04-12T10:33:03.696Z,21.00
2024-04-12T10:35:49.620Z,20.80
2024-04-12T10:38:27.482Z,20.80
2024-04-12T10:41:09.221Z,21.10
2024-04-12T10:43:37.063Z,21.00
2024-04-12T10:46:06.601Z,21.00
2024-04-12T10:48:35.171Z,21.00
2024-04-12T10:51:03.546Z,21.00
2024-04-12T10:53:30.641Z,21.10
2024-04-12T10:55:57.536Z,21.20
2024-04-12T10:58:29.433Z,21.20
2024-04-12T11:01:01.960Z,21.20
2024-04-12T11:03:30.925Z,21.20
2024-04-12T11:06:18.324Z,21.40
2024-04-12T11:08:47.403Z,21.00
2024-04-12T11:11:18.919Z,21.10
2024-04-12T11:13:48.638Z,21.60
2024-04-12T11:16:34.350Z,21.80
2024-04-12T11:19:19.963Z,21.50
2024-04-12T11:22:05.442Z,21.60
2024-04-12T11:24:50.795Z,21.50
2024-04-12T11:27:36.618Z,21.60
2024-04-12T11:30:22.112Z,21.80
2024-04-12T11:32:56.881Z,22.00
2024-04-12T11:35:29.926Z,21.90
2024-04-12T11:37:57.036Z,22.10
2024-04-12T11:40:26.171Z,22.20
2024-04-12T11:42:57.671Z,22.10
2024-04-12T11:45:27.377Z,22.00
2024-04-12T11:47:54.324Z,21.70
2024-04-12T11:50:23.087Z,21.90
2024-04-12T11:52:55.695Z,21.40
2024-04-12T11:55:28.540Z,21.50
2024-04-12T11:57:57.224Z,22.00
2024-04-12T12:00:24.502Z,22.10
2024-04-12T12:02:53.603Z,22.10
2024-04-12T12:05:22.604Z,22.10
2024-04-12T12:07:49.790Z,22.40
2024-04-12T12:10:16.938Z,22.10
2024-04-12T12:12:45.075Z,22.20
2024-04-12T12:15:15.627Z,22.20
2024-04-12T12:17:43.003Z,22.00
2024-04-12T12:20:22.285Z,21.70
2024-04-12T12:22:49.316Z,22.30
2024-04-12T12:25:17.327Z,22.40
2024-04-12T12:27:44.609Z,22.30
2024-04-12T12:30:20.260Z,22.50
2024-04-12T12:32:47.765Z,22.40
2024-04-12T12:35:23.885Z,22.60
2024-04-12T12:37:51.724Z,22.40
2024-04-12T12:40:21.760Z,22.10
2024-04-12T12:42:49.303Z,21.90
2024-04-12T12:45:18.081Z,22.00
2024-04-12T12:47:45.444Z,22.20
2024-04-12T12:50:21.192Z,22.10
2024-04-12T12:52:52.057Z,22.30
2024-04-12T12:55:24.502Z,22.10
2024-04-12T12:58:11.765Z,22.40
2024-04-12T13:00:45.831Z,22.10
2024-04-12T13:03:14.060Z,22.20
2024-04-12T13:05:41.624Z,22.30
2024-04-12T13:08:08.765Z,22.20
2024-04-12T13:10:35.638Z,22.60
2024-04-12T13:13:05.914Z,22.80
2024-04-12T13:15:33.325Z,22.90
2024-04-12T13:18:00.710Z,23.20
2024-04-12T13:20:27.693Z,23.10
2024-04-12T13:22:54.628Z,23.10
2024-04-12T13:25:21.488Z,22.90
2024-04-12T13:27:48.539Z,23.00
2024-04-12T13:30:16.653Z,23.20
2024-04-12T13:32:51.386Z,23.30
2024-04-12T13:35:18.423Z,23.30
2024-04-12T13:37:45.461Z,23.30
2024-04-12T13:40:18.984Z,23.50
2024-04-12T13:42:48.967Z,23.40
2024-04-12T13:45:35.583Z,23.50
2024-04-12T13:48:21.633Z,23.60
2024-04-12T13:50:57.588Z,23.10
2024-04-12T13:53:37.158Z,23.10
2024-04-12T13:56:43.373Z,23.40
2024-04-12T13:59:12.103Z,23.70
2024-04-12T14:01:42.823Z,23.60
2024-04-12T14:04:19.391Z,23.30
2024-04-12T14:06:50.722Z,23.10
2024-04-12T14:09:24.958Z,23.30
2024-04-12T14:11:52.761Z,23.10
2024-04-12T14:14:24.206Z,23.10
2024-04-12T14:16:53.261Z,23.20
2024-04-12T14:19:21.523Z,23.30
2024-04-12T14:21:52.991Z,23.40
2024-04-12T14:24:40.306Z,23.30
2024-04-12T14:27:07.534Z,23.00
2024-04-12T14:29:35.471Z,22.80
2024-04-12T14:32:11.043Z,22.80
2024-04-12T14:34:38.202Z,22.90
2024-04-12T14:37:05.941Z,23.10
2024-04-12T14:39:35.905Z,23.10
2024-04-12T14:42:04.166Z,23.20
2024-04-12T14:44:40.211Z,23.20
2024-04-12T14:47:08.386Z,23.10
2024-04-12T14:49:35.304Z,23.00
2024-04-12T14:52:02.390Z,23.10
2024-04-12T14:54:32.771Z,23.10
2024-04-12T14:56:59.744Z,23.00
2024-04-12T14:59:26.589Z,22.90
2024-04-12T15:01:53.465Z,22.80
2024-04-12T15:04:38.932Z,22.80
2024-04-12T15:07:24.698Z,22.80
2024-04-12T15:10:10.162Z,22.80
2024-04-12T15:12:55.680Z,22.70
2024-04-12T15:15:41.191Z,22.90
2024-04-12T15:18:26.602Z,22.90
2024-04-12T15:21:12.175Z,22.70
2024-04-12T15:23:58.019Z,22.70
2024-04-12T15:26:43.573Z,22.80
2024-04-12T15:29:28.851Z,22.90
2024-04-12T15:32:14.554Z,22.80
2024-04-12T15:35:00.368Z,22.90
2024-04-12T15:37:45.679Z,23.00
2024-04-12T15:40:31.090Z,22.80
2024-04-12T15:43:16.312Z,22.60
2024-04-12T15:46:01.871Z,22.60
2024-04-12T15:48:31.382Z,22.60
2024-04-12T15:50:58.424Z,22.60
2024-04-12T15:53:31.774Z,22.50
2024-04-12T15:56:01.365Z,22.20
2024-04-12T15:58:48.035Z,22.10
2024-04-12T16:01:35.367Z,22.10
2024-04-12T16:04:23.934Z,22.10
2024-04-12T16:07:09.901Z,22.20
2024-04-12T16:09:59.751Z,22.30
2024-04-12T16:12:27.568Z,22.30
2024-04-12T16:14:57.664Z,22.20
2024-04-12T16:17:25.574Z,22.30
2024-04-12T16:19:55.351Z,22.30
2024-04-12T16:22:25.378Z,22.40
2024-04-12T16:24:53.733Z,22.20
2024-04-12T16:27:20.644Z,22.10
2024-04-12T16:29:47.943Z,22.10
2024-04-12T16:32:15.281Z,21.90
2024-04-12T16:34:42.202Z,21.90
2024-04-12T16:37:10.685Z,21.80
2024-04-12T16:39:37.539Z,21.70
2024-04-12T16:42:04.748Z,21.50
2024-04-12T16:44:31.793Z,21.50
2024-04-12T16:46:58.849Z,21.50
2024-04-12T16:49:25.777Z,21.30
2024-04-12T16:51:55.989Z,21.30
2024-04-12T16:54:24.686Z,21.20
2024-04-12T16:56:51.960Z,21.30
2024-04-12T16:59:19.135Z,21.40
2024-04-12T17:01:45.999Z,21.30
2024-04-12T17:04:14.166Z,21.40
2024-04-12T17:06:42.085Z,21.30
2024-04-12T17:09:11.129Z,21.30
2024-04-12T17:11:39.347Z,21.30
2024-04-12T17:14:06.661Z,21.10
2024-04-12T17:16:33.904Z,21.10
2024-04-12T17:19:01.115Z,21.10
2024-04-12T17:21:28.208Z,21.10
2024-04-12T17:23:55.448Z,21.00
2024-04-12T17:26:22.380Z,21.10
2024-04-12T17:28:50.073Z,21.10
2024-04-12T17:31:17.006Z,21.20
2024-04-12T17:33:44.085Z,21.20
2024-04-12T17:36:12.276Z,21.20
2024-04-12T17:38:40.288Z,21.10
2024-04-12T17:41:07.901Z,21.00
2024-04-12T17:43:35.338Z,20.90
2024-04-12T17:46:02.283Z,20.90
2024-04-12T17:48:29.880Z,20.80
2024-04-12T17:50:57.349Z,20.70
2024-04-12T17:53:24.734Z,20.80
2024-04-12T17:55:51.699Z,20.60
2024-04-12T17:58:18.493Z,20.50
2024-04-12T18:00:48.216Z,20.40
2024-04-12T18:03:15.374Z,20.40
2024-04-12T18:05:42.452Z,20.50
2024-04-12T18:08:09.261Z,20.20
2024-04-12T18:10:36.209Z,20.20
2024-04-12T18:13:03.391Z,20.30
2024-04-12T18:15:30.343Z,20.40
2024-04-12T18:17:57.409Z,20.40
2024-04-12T18:20:25.968Z,20.30
2024-04-12T18:22:53.694Z,20.30
2024-04-12T18:25:20.602Z,20.30
2024-04-12T18:27:47.595Z,20.20
2024-04-12T18:30:14.519Z,20.10
2024-04-12T18:32:42.576Z,20.10
2024-04-12T18:35:13.150Z,20.00
2024-04-12T18:38:01.710Z,19.90
2024-04-12T18:40:47.230Z,19.80
2024-04-12T18:43:32.993Z,19.70
2024-04-12T18:46:02.514Z,19.70
2024-04-12T18:48:29.877Z,19.60
2024-04-12T18:50:56.888Z,19.50
2024-04-12T18:53:24.872Z,19.40
2024-04-12T18:55:55.028Z,19.30
2024-04-12T18:58:21.972Z,19.30
2024-04-12T19:00:52.992Z,19.30
2024-04-12T19:03:19.979Z,19.20
2024-04-12T19:05:46.891Z,19.10
2024-04-12T19:08:13.883Z,19.10
2024-04-12T19:10:42.480Z,19.10
2024-04-12T19:13:12.098Z,19.00
2024-04-12T19:15:40.110Z,19.00
2024-04-12T19:18:10.857Z,18.90
2024-04-12T19:20:44.165Z,18.80
2024-04-12T19:23:12.084Z,18.70
2024-04-12T19:25:38.998Z,18.70
2024-04-12T19:28:06.177Z,18.60
2024-04-12T19:30:37.641Z,18.60
2024-04-12T19:33:04.818Z,18.50
2024-04-12T19:35:31.775Z,18.40
2024-04-12T19:37:58.737Z,18.30
2024-04-12T19:40:25.630Z,18.20
2024-04-12T19:42:52.492Z,18.20
2024-04-12T19:45:19.385Z,18.20
2024-04-12T19:47:46.363Z,18.10
2024-04-12T19:50:14.054Z,18.00
2024-04-12T19:52:47.767Z,18.00
2024-04-12T19:55:21.243Z,17.90
2024-04-12T19:57:48.140Z,18.00
2024-04-12T20:00:15.126Z,17.70
2024-04-12T20:02:41.934Z,17.60
2024-04-12T20:05:08.873Z,17.60
2024-04-12T20:07:35.668Z,17.70
2024-04-12T20:10:02.533Z,17.70
2024-04-12T20:12:29.444Z,17.60
2024-04-12T20:14:56.498Z,17.60
2024-04-12T20:17:23.445Z,17.60
2024-04-12T20:19:53.557Z,17.60
2024-04-12T20:22:23.967Z,17.60
2024-04-12T20:24:51.096Z,17.50
2024-04-12T20:27:18.180Z,17.50
2024-04-12T20:29:56.166Z,17.40
2024-04-12T20:32:25.918Z,17.30
2024-04-12T20:35:11.509Z,17.40
2024-04-12T20:37:41.130Z,17.30
2024-04-12T20:40:09.093Z,17.20
2024-04-12T20:42:36.406Z,17.00
2024-04-12T20:45:03.633Z,16.90
2024-04-12T20:47:30.561Z,16.90
2024-04-12T20:49:57.431Z,16.90
2024-04-12T20:52:24.484Z,16.80
2024-04-12T20:54:51.264Z,16.80
2024-04-12T20:57:19.690Z,16.70
2024-04-12T20:59:52.557Z,16.70
2024-04-12T21:02:19.531Z,16.70
2024-04-12T21:04:50.932Z,16.70
2024-04-12T21:07:18.751Z,16.60
2024-04-12T21:09:45.567Z,16.60
2024-04-12T21:12:12.996Z,16.60
2024-04-12T21:14:41.128Z,16.60
2024-04-12T21:17:09.564Z,16.50
2024-04-12T21:19:36.432Z,16.60
2024-04-12T21:22:03.388Z,16.40
2024-04-12T21:24:30.565Z,16.30
2024-04-12T21:26:57.477Z,16.20
2024-04-12T21:29:24.609Z,16.40
2024-04-12T21:31:51.486Z,16.30
2024-04-12T21:34:18.276Z,16.20
2024-04-12T21:36:45.058Z,16.20
2024-04-12T21:39:11.868Z,16.00
2024-04-12T21:41:38.723Z,15.90
2024-04-12T21:44:05.589Z,15.90
2024-04-12T21:46:32.425Z,15.90
2024-04-12T21:48:59.258Z,15.80
2024-04-12T21:51:26.250Z,15.80
2024-04-12T21:53:54.062Z,15.80
2024-04-12T21:56:21.138Z,15.70
2024-04-12T21:58:51.428Z,15.60
2024-04-12T22:01:18.813Z,15.70
2024-04-12T22:03:46.094Z,15.70
2024-04-12T22:06:13.213Z,15.70
2024-04-12T22:08:41.930Z,15.60
2024-04-12T22:11:09.212Z,15.60
2024-04-12T22:13:37.558Z,15.60
2024-04-12T22:16:05.993Z,15.50
2024-04-12T22:18:35.472Z,15.40
2024-04-12T22:21:09.451Z,15.30
2024-04-12T22:23:39.378Z,15.20
2024-04-12T22:26:10.404Z,15.10
2024-04-12T22:28:40.602Z,15.10
2024-04-12T22:31:07.477Z,14.90
2024-04-12T22:33:34.966Z,14.80
2024-04-12T22:36:09.771Z,14.80
2024-04-12T22:38:36.933Z,14.80
2024-04-12T22:41:03.980Z,14.80
2024-04-12T22:43:30.762Z,14.80
2024-04-12T22:45:57.586Z,14.80
2024-04-12T22:48:24.994Z,14.80
2024-04-12T22:50:52.616Z,14.80
2024-04-12T22:53:22.450Z,14.90
2024-04-12T22:55:50.315Z,14.90
2024-04-12T22:58:17.289Z,14.80
2024-04-12T23:00:45.499Z,14.80
2024-04-12T23:03:12.412Z,14.80
2024-04-12T23:05:39.306Z,14.70
2024-04-12T23:08:06.395Z,14.70
2024-04-12T23:10:33.545Z,14.60
2024-04-12T23:13:00.373Z,14.50
2024-04-12T23:15:27.201Z,14.30
2024-04-12T23:17:54.133Z,14.30
2024-04-12T23:20:23.461Z,14.20
2024-04-12T23:22:50.381Z,14.30
2024-04-12T23:25:17.226Z,14.30
2024-04-12T23:27:44.057Z,14.30
2024-04-12T23:30:11.220Z,14.20
2024-04-12T23:32:38.226Z,14.10
2024-04-12T23:35:05.409Z,14.10
2024-04-12T23:37:34.164Z,14.00
2024-04-12T23:40:01.112Z,14.00
2024-04-12T23:42:28.318Z,13.90
2024-04-12T23:44:55.178Z,13.90
2024-04-12T23:47:22.005Z,13.90
2024-04-12T23:49:48.882Z,13.80
2024-04-12T23:52:15.670Z,13.90
2024-04-12T23:54:42.426Z,13.90
2024-04-12T23:57:09.246Z,13.80
2024-04-12T23:59:36.136Z,13.70
